Time;durP1;ratioP1;P1;durP2;ratioP2;P2;SDS_P1;SDS_P2;PMS_P1;PMS_P2;Temp;Humidity;BMP_temperature;BMP_pressure;BME280_temperature;BME280_humidity;BME280_pressure;Samples;Min_cycle;Max_cycle;Signal;HPM_P1;HPM_P2
2022/07/30 00:01:54;;;;;;;3.33;1.08;;;22.20;99.90;;;;;;5027906;28;20113;-82
2022/07/30 00:04:20;;;;;;;3.72;1.25;;;22.20;99.90;;;;;;5027161;28;20412;-82
2022/07/30 00:06:47;;;;;;;4.55;1.20;;;22.10;99.90;;;;;;5030723;28;20483;-82
2022/07/30 00:09:14;;;;;;;3.60;1.10;;;22.10;99.90;;;;;;5027615;28;20069;-83
2022/07/30 00:11:41;;;;;;;1.98;1.00;;;22.00;99.90;;;;;;5030537;28;20045;-82
2022/07/30 00:14:07;;;;;;;2.22;1.00;;;22.00;99.90;;;;;;5030562;28;20065;-82
2022/07/30 00:16:35;;;;;;;2.17;1.10;;;22.00;99.90;;;;;;5033963;28;20113;-81
2022/07/30 00:19:02;;;;;;;3.17;1.23;;;22.00;99.90;;;;;;5032072;28;20045;-82
2022/07/30 00:21:29;;;;;;;4.35;1.00;;;22.00;99.90;;;;;;5026362;28;20081;-82
2022/07/30 00:24:05;;;;;;;3.92;1.02;;;22.00;99.90;;;;;;5028102;28;20045;-81
2022/07/30 00:26:32;;;;;;;3.80;1.17;;;22.00;99.90;;;;;;5026613;28;20392;-82
2022/07/30 00:28:59;;;;;;;4.35;1.10;;;22.00;99.90;;;;;;5028983;28;20419;-82
2022/07/30 00:31:26;;;;;;;3.15;1.10;;;22.00;99.90;;;;;;5018753;28;20135;-81
2022/07/30 00:33:53;;;;;;;4.57;1.23;;;22.00;99.90;;;;;;5027260;28;20054;-82
2022/07/30 00:36:19;;;;;;;6.38;1.23;;;22.00;99.90;;;;;;5028339;28;20049;-82
2022/07/30 00:38:46;;;;;;;2.95;1.25;;;22.00;99.90;;;;;;5027675;28;20109;-82
2022/07/30 00:41:13;;;;;;;1.33;0.93;;;22.00;99.90;;;;;;5024816;28;20137;-82
2022/07/30 00:43:42;;;;;;;3.35;1.17;;;22.00;99.90;;;;;;5030156;28;20045;-82
2022/07/30 00:46:09;;;;;;;1.10;1.00;;;22.00;99.90;;;;;;5026529;28;20046;-81
2022/07/30 00:48:36;;;;;;;1.35;1.00;;;21.90;99.90;;;;;;5028130;28;20049;-82
2022/07/30 00:51:03;;;;;;;3.65;0.90;;;21.90;99.90;;;;;;5028006;28;20110;-82
2022/07/30 00:53:30;;;;;;;3.38;1.17;;;21.90;99.90;;;;;;5027293;28;20149;-82
2022/07/30 00:55:56;;;;;;;2.95;1.20;;;21.90;99.90;;;;;;5028884;28;20125;-82
2022/07/30 00:58:23;;;;;;;1.38;0.85;;;21.90;99.90;;;;;;5029787;28;20109;-81
2022/07/30 01:00:50;;;;;;;4.30;1.95;;;21.90;99.90;;;;;;5033014;28;20046;-82
2022/07/30 01:03:17;;;;;;;1.55;0.98;;;21.90;99.90;;;;;;5031586;28;20109;-82
2022/07/30 01:05:44;;;;;;;2.90;1.17;;;21.80;99.90;;;;;;5032665;28;20049;-82
2022/07/30 01:08:11;;;;;;;1.50;1.00;;;21.80;99.90;;;;;;5034508;28;20081;-82
2022/07/30 01:10:37;;;;;;;2.78;1.02;;;21.80;99.90;;;;;;5033172;28;20050;-82
2022/07/30 01:13:06;;;;;;;3.20;1.25;;;21.80;99.90;;;;;;5033900;28;20046;-82
2022/07/30 01:15:34;;;;;;;2.50;1.20;;;21.70;99.90;;;;;;5033963;28;20053;-82
2022/07/30 01:18:05;;;;;;;3.90;1.30;;;21.60;99.90;;;;;;5032654;28;20133;-82
2022/07/30 01:20:37;;;;;;;4.20;1.10;;;21.70;99.90;;;;;;5031057;28;20080;-81
2022/07/30 01:23:19;;;;;;;3.10;1.10;;;21.60;99.90;;;;;;5028269;28;20046;-82
2022/07/30 01:25:54;;;;;;;3.20;1.30;;;21.60;99.90;;;;;;5030961;28;20052;-82
2022/07/30 01:28:35;;;;;;;2.28;1.40;;;21.60;99.90;;;;;;5029677;28;20072;-81
2022/07/30 01:31:03;;;;;;;4.60;1.33;;;21.50;99.90;;;;;;5031487;28;20512;-82
2022/07/30 01:33:31;;;;;;;3.25;1.25;;;21.50;99.90;;;;;;5032983;28;20049;-81
2022/07/30 01:36:00;;;;;;;6.07;1.38;;;21.50;99.90;;;;;;5032124;28;20053;-82
2022/07/30 01:38:29;;;;;;;1.98;1.20;;;21.40;99.90;;;;;;5032137;28;20081;-81
2022/07/30 01:41:01;;;;;;;2.95;1.73;;;21.40;99.90;;;;;;5027642;28;20046;-81
2022/07/30 01:43:31;;;;;;;3.15;1.35;;;21.30;99.90;;;;;;5033356;28;20046;-82
2022/07/30 01:45:59;;;;;;;3.03;1.27;;;21.30;99.90;;;;;;5033575;28;20128;-81
2022/07/30 01:48:27;;;;;;;3.72;1.25;;;21.30;99.90;;;;;;5039142;28;20046;-79
2022/07/30 01:50:57;;;;;;;3.33;1.42;;;21.20;99.90;;;;;;5044222;28;20081;-80
2022/07/30 01:53:26;;;;;;;5.93;1.50;;;21.20;99.90;;;;;;5039438;28;20416;-81
2022/07/30 01:55:54;;;;;;;1.13;1.03;;;21.10;99.90;;;;;;5030753;28;20046;-81
2022/07/30 01:58:26;;;;;;;2.80;1.30;;;21.10;99.90;;;;;;5031535;28;20045;-81
2022/07/30 02:00:55;;;;;;;2.72;1.17;;;21.00;99.90;;;;;;5026554;28;20080;-81
2022/07/30 02:03:22;;;;;;;5.30;1.30;;;21.00;99.90;;;;;;5031838;28;20042;-81
2022/07/30 02:05:57;;;;;;;2.92;1.10;;;21.00;99.90;;;;;;5037096;28;20627;-80
2022/07/30 02:08:36;;;;;;;4.50;1.30;;;20.90;99.90;;;;;;5031794;28;20046;-81
2022/07/30 02:12:27;;;;;;;2.60;1.10;;;20.90;99.90;;;;;;5030468;28;20507;-81
2022/07/30 02:14:13;;;;;;;7.50;1.42;;;20.80;99.90;;;;;;5031600;28;20560;-81
2022/07/30 02:16:44;;;;;;;4.53;1.17;;;20.80;99.90;;;;;;5028684;28;20566;-81
2022/07/30 02:19:14;;;;;;;4.43;1.35;;;20.80;99.90;;;;;;5029071;28;20096;-82
2022/07/30 02:21:55;;;;;;;2.17;1.10;;;20.70;99.90;;;;;;5031147;28;20046;-81
2022/07/30 02:24:28;;;;;;;1.75;1.58;;;20.70;99.90;;;;;;5028761;28;20490;-81
2022/07/30 02:27:06;;;;;;;3.35;1.38;;;20.70;99.90;;;;;;5025969;28;20128;-82
2022/07/30 02:29:35;;;;;;;4.70;1.60;;;20.70;99.90;;;;;;5028179;28;20057;-81
2022/07/30 02:32:08;;;;;;;3.33;1.60;;;20.70;99.90;;;;;;5031614;28;20081;-81
2022/07/30 02:34:37;;;;;;;2.67;1.40;;;20.60;99.90;;;;;;5030127;28;20492;-81
2022/07/30 02:37:07;;;;;;;4.35;1.30;;;20.60;99.90;;;;;;5029529;28;20049;-80
2022/07/30 02:39:35;;;;;;;2.13;1.27;;;20.60;99.90;;;;;;5031844;28;20047;-81
2022/07/30 02:42:03;;;;;;;4.85;1.20;;;20.50;99.90;;;;;;5022047;28;20085;-81
2022/07/30 02:44:30;;;;;;;2.65;1.30;;;20.50;99.90;;;;;;5031731;28;20519;-81
2022/07/30 02:46:59;;;;;;;6.20;1.40;;;20.50;99.90;;;;;;5031835;28;20077;-80
2022/07/30 02:49:32;;;;;;;2.70;1.40;;;20.50;99.90;;;;;;5030270;28;20136;-81
2022/07/30 02:52:01;;;;;;;3.85;1.40;;;20.40;99.90;;;;;;5026282;28;20077;-81
2022/07/30 02:54:30;;;;;;;5.68;1.45;;;20.40;99.90;;;;;;5031499;28;20466;-80
2022/07/30 02:56:59;;;;;;;4.60;1.70;;;20.40;99.90;;;;;;5031688;28;20053;-81
2022/07/30 02:59:29;;;;;;;1.52;1.38;;;20.30;99.90;;;;;;5027722;28;20137;-82
2022/07/30 03:01:57;;;;;;;3.53;1.63;;;20.30;99.90;;;;;;5031495;28;20057;-81
2022/07/30 03:04:25;;;;;;;6.95;1.67;;;20.20;99.90;;;;;;5030817;28;20045;-81
2022/07/30 03:06:53;;;;;;;4.38;1.48;;;20.20;99.90;;;;;;5030744;28;20054;-81
2022/07/30 03:09:20;;;;;;;3.05;1.52;;;20.20;99.90;;;;;;5028702;28;20065;-81
2022/07/30 03:11:50;;;;;;;4.20;1.70;;;20.20;99.90;;;;;;5032135;28;20065;-81
2022/07/30 03:14:18;;;;;;;2.97;1.67;;;20.20;99.90;;;;;;5028492;28;20050;-81
2022/07/30 03:16:54;;;;;;;3.65;1.77;;;20.10;99.90;;;;;;5030712;28;20117;-81
2022/07/30 03:19:23;;;;;;;8.07;1.98;;;20.10;99.90;;;;;;5029782;28;20045;-81
2022/07/30 03:21:52;;;;;;;3.45;2.30;;;20.10;99.90;;;;;;5028521;28;20069;-81
2022/07/30 03:24:22;;;;;;;2.08;1.55;;;20.00;99.90;;;;;;5030983;28;20041;-81
2022/07/30 03:26:51;;;;;;;6.00;1.90;;;20.10;99.90;;;;;;5032643;28;20109;-80
2022/07/30 03:29:19;;;;;;;2.25;1.80;;;20.00;99.90;;;;;;5029844;28;20050;-81
2022/07/30 03:31:48;;;;;;;5.07;1.97;;;20.00;99.90;;;;;;5038913;28;20049;-80
2022/07/30 03:34:17;;;;;;;4.18;1.73;;;20.00;99.90;;;;;;5040065;28;20337;-81
2022/07/30 03:36:46;;;;;;;2.80;1.58;;;19.90;99.90;;;;;;5033417;28;20053;-81
2022/07/30 03:39:13;;;;;;;2.97;1.55;;;19.90;99.90;;;;;;5031953;28;20108;-81
2022/07/30 03:41:41;;;;;;;4.30;1.65;;;19.90;99.90;;;;;;5029603;28;20081;-81
2022/07/30 03:44:09;;;;;;;3.47;1.55;;;19.80;99.90;;;;;;5031813;28;20043;-81
2022/07/30 03:46:36;;;;;;;2.50;1.73;;;19.80;99.90;;;;;;5030370;28;20042;-81
2022/07/30 03:49:04;;;;;;;5.30;1.88;;;19.80;99.90;;;;;;5027909;28;20125;-81
2022/07/30 03:51:33;;;;;;;2.97;1.88;;;19.80;99.90;;;;;;5031691;28;20585;-81
2022/07/30 03:54:01;;;;;;;4.43;1.73;;;19.80;99.90;;;;;;5030392;28;20113;-81
2022/07/30 03:56:27;;;;;;;4.22;2.10;;;19.60;99.90;;;;;;5034181;28;20087;-81
2022/07/30 03:58:54;;;;;;;6.63;1.98;;;19.70;99.90;;;;;;5028336;28;20132;-81
2022/07/30 04:01:25;;;;;;;4.63;2.13;;;19.70;99.90;;;;;;5027315;28;20045;-81
2022/07/30 04:03:52;;;;;;;4.68;1.90;;;19.70;99.90;;;;;;5022473;28;20041;-81
2022/07/30 04:06:19;;;;;;;4.53;1.77;;;19.70;99.90;;;;;;5029868;28;20053;-81
2022/07/30 04:08:46;;;;;;;5.85;1.98;;;19.60;99.90;;;;;;5026968;28;20082;-80
2022/07/30 04:11:13;;;;;;;2.67;1.90;;;19.60;99.90;;;;;;5028027;28;20053;-81
2022/07/30 04:13:39;;;;;;;3.88;1.92;;;19.60;99.90;;;;;;5029534;28;20093;-81
2022/07/30 04:16:22;;;;;;;9.20;2.50;;;19.60;99.90;;;;;;5026913;28;20069;-80
2022/07/30 04:19:11;;;;;;;3.17;1.70;;;19.50;99.90;;;;;;5024927;28;20129;-81
2022/07/30 04:21:40;;;;;;;5.82;2.40;;;19.50;99.90;;;;;;5026396;28;20081;-81
2022/07/30 04:24:09;;;;;;;6.97;2.22;;;19.50;99.90;;;;;;5030272;28;20084;-81
2022/07/30 04:26:37;;;;;;;3.17;2.03;;;19.50;99.90;;;;;;5023427;28;20070;-81
2022/07/30 04:29:08;;;;;;;3.60;2.33;;;19.50;99.90;;;;;;5028246;28;20045;-81
2022/07/30 04:31:39;;;;;;;3.33;2.35;;;19.50;99.90;;;;;;5029176;28;20090;-81
2022/07/30 04:34:07;;;;;;;5.40;2.38;;;19.50;99.90;;;;;;5025413;28;20050;-80
2022/07/30 04:36:34;;;;;;;5.43;2.15;;;19.50;99.90;;;;;;5027148;28;20054;-80
2022/07/30 04:39:02;;;;;;;3.70;2.50;;;19.50;99.90;;;;;;5027658;28;20156;-82
2022/07/30 04:41:29;;;;;;;4.22;2.40;;;19.50;99.90;;;;;;5027376;28;20049;-82
2022/07/30 04:44:16;;;;;;;4.97;2.35;;;19.50;99.90;;;;;;5026406;28;20088;-82
2022/07/30 04:46:43;;;;;;;5.95;2.35;;;19.50;99.90;;;;;;5029092;28;20077;-81
2022/07/30 04:49:12;;;;;;;13.00;3.50;;;19.60;99.90;;;;;;5032184;28;20050;-79
2022/07/30 04:51:40;;;;;;;3.35;2.28;;;19.60;99.90;;;;;;5028591;28;20050;-81
2022/07/30 04:54:09;;;;;;;3.75;2.25;;;19.60;99.90;;;;;;5028727;28;20422;-81
2022/07/30 04:56:44;;;;;;;3.63;2.15;;;19.60;99.90;;;;;;5029764;28;20065;-81
2022/07/30 04:59:23;;;;;;;4.60;2.25;;;19.60;99.90;;;;;;5024911;28;20062;-81
2022/07/30 05:01:52;;;;;;;4.47;2.38;;;19.60;99.90;;;;;;5027211;28;20041;-81
2022/07/30 05:04:21;;;;;;;4.55;2.13;;;19.60;99.90;;;;;;5029931;28;20088;-81
2022/07/30 05:06:48;;;;;;;6.60;2.20;;;19.60;99.90;;;;;;5019926;28;20504;-80
2022/07/30 05:09:16;;;;;;;4.47;2.15;;;19.80;99.90;;;;;;5029241;28;20080;-82
2022/07/30 05:11:52;;;;;;;7.03;2.22;;;19.80;99.90;;;;;;5029325;28;20049;-81
2022/07/30 05:14:20;;;;;;;7.00;3.25;;;19.90;99.90;;;;;;5027010;28;20092;-81
2022/07/30 05:16:47;;;;;;;5.28;2.90;;;19.90;99.90;;;;;;5029247;28;20495;-81
2022/07/30 05:19:15;;;;;;;4.90;2.65;;;20.00;99.90;;;;;;5026696;28;20113;-82
2022/07/30 05:21:42;;;;;;;3.63;2.80;;;20.10;99.90;;;;;;5027523;28;20050;-81
2022/07/30 05:24:08;;;;;;;3.35;2.40;;;20.20;99.90;;;;;;5028126;28;20132;-81
2022/07/30 05:26:35;;;;;;;3.90;2.35;;;20.30;99.90;;;;;;5026967;28;20113;-81
2022/07/30 05:29:02;;;;;;;6.05;2.20;;;20.30;99.90;;;;;;5032048;28;20077;-82
2022/07/30 05:31:33;;;;;;;4.80;2.53;;;20.40;99.90;;;;;;5034029;28;20056;-82
2022/07/30 05:34:01;;;;;;;6.20;2.28;;;20.40;99.90;;;;;;5030078;28;20046;-82
2022/07/30 05:36:29;;;;;;;3.50;2.15;;;20.50;99.90;;;;;;5028098;28;20112;-80
2022/07/30 05:38:56;;;;;;;4.47;2.15;;;20.50;99.90;;;;;;5029513;28;20505;-82
2022/07/30 05:41:23;;;;;;;4.25;2.40;;;20.60;99.90;;;;;;5025990;28;20105;-81
2022/07/30 05:43:59;;;;;;;4.85;2.20;;;20.50;99.90;;;;;;5033691;28;20069;-81
2022/07/30 05:46:26;;;;;;;5.22;2.38;;;20.60;99.90;;;;;;5036512;28;20091;-82
2022/07/30 05:48:53;;;;;;;5.88;2.50;;;20.60;99.90;;;;;;5025686;28;20105;-82
2022/07/30 05:51:20;;;;;;;6.13;2.20;;;20.60;99.90;;;;;;5033364;28;20085;-82
2022/07/30 05:53:48;;;;;;;5.53;2.30;;;20.60;99.90;;;;;;5032297;28;20050;-81
2022/07/30 05:56:15;;;;;;;2.60;1.95;;;20.70;99.90;;;;;;5031948;28;20050;-82
2022/07/30 05:58:41;;;;;;;4.93;1.92;;;20.70;99.90;;;;;;5033611;28;20109;-82
2022/07/30 06:01:08;;;;;;;2.90;1.58;;;20.70;99.90;;;;;;5031240;28;20046;-82
2022/07/30 06:03:35;;;;;;;4.38;1.80;;;20.80;99.90;;;;;;5042158;28;20121;-81
2022/07/30 06:06:03;;;;;;;2.97;1.55;;;20.90;99.90;;;;;;5040969;28;20196;-81
2022/07/30 06:08:30;;;;;;;1.98;1.60;;;20.90;99.90;;;;;;5038644;28;20046;-81
2022/07/30 06:10:57;;;;;;;6.70;1.90;;;20.90;99.90;;;;;;5030765;28;20053;-82
2022/07/30 06:13:24;;;;;;;5.53;2.08;;;20.90;99.90;;;;;;5028195;28;20038;-82
2022/07/30 06:15:51;;;;;;;2.78;2.00;;;21.00;99.90;;;;;;5024469;28;20073;-81
2022/07/30 06:18:18;;;;;;;4.72;1.80;;;21.00;99.90;;;;;;5030591;28;20096;-82
2022/07/30 06:20:53;;;;;;;2.55;1.85;;;21.00;99.90;;;;;;5030257;28;20046;-82
2022/07/30 06:23:20;;;;;;;2.53;1.48;;;21.00;99.90;;;;;;5028275;28;20054;-83
2022/07/30 06:25:47;;;;;;;5.53;2.00;;;21.00;99.90;;;;;;5024139;28;20176;-81
2022/07/30 06:28:17;;;;;;;3.97;1.60;;;21.00;99.90;;;;;;5028185;28;20080;-82
2022/07/30 06:31:04;;;;;;;3.00;1.40;;;21.10;99.90;;;;;;5026171;28;20054;-82
2022/07/30 06:33:31;;;;;;;4.53;1.45;;;21.10;99.90;;;;;;5031734;28;20053;-82
2022/07/30 06:35:57;;;;;;;8.75;1.52;;;21.10;99.90;;;;;;5031081;28;20092;-82
2022/07/30 06:38:24;;;;;;;4.90;1.67;;;21.10;99.90;;;;;;5031537;28;20054;-80
2022/07/30 06:40:51;;;;;;;8.70;1.75;;;21.20;99.90;;;;;;5035176;28;20085;-82
2022/07/30 06:43:19;;;;;;;2.30;1.80;;;21.20;99.90;;;;;;5019263;28;20050;-81
2022/07/30 06:45:46;;;;;;;5.78;1.70;;;21.30;99.90;;;;;;5031183;28;20049;-82
2022/07/30 06:48:13;;;;;;;3.40;1.70;;;21.30;99.90;;;;;;5030696;28;20102;-82
2022/07/30 06:50:40;;;;;;;2.50;1.60;;;21.30;99.90;;;;;;5028164;28;20068;-82
2022/07/30 06:53:07;;;;;;;5.03;1.90;;;21.40;99.90;;;;;;5030606;28;20076;-82
2022/07/30 06:55:34;;;;;;;1.77;1.40;;;21.40;99.90;;;;;;5026893;28;20050;-81
2022/07/30 06:58:01;;;;;;;13.07;1.90;;;21.40;99.90;;;;;;5030926;28;20081;-82
2022/07/30 07:00:28;;;;;;;3.55;1.67;;;21.40;99.90;;;;;;5028650;28;20050;-82
2022/07/30 07:02:54;;;;;;;7.53;1.83;;;21.50;99.90;;;;;;5028138;28;20103;-82
2022/07/30 07:05:22;;;;;;;2.13;1.50;;;21.50;99.90;;;;;;5029226;28;20427;-82
2022/07/30 07:07:49;;;;;;;4.72;1.80;;;21.60;99.90;;;;;;5027595;28;20077;-82
2022/07/30 07:10:26;;;;;;;2.90;1.60;;;21.60;99.90;;;;;;5025380;28;20125;-83
2022/07/30 07:12:53;;;;;;;3.60;1.50;;;21.60;99.90;;;;;;5027880;28;20045;-82
2022/07/30 07:15:20;;;;;;;4.35;1.30;;;21.70;99.90;;;;;;5029020;28;20089;-82
2022/07/30 07:18:03;;;;;;;5.00;1.70;;;21.70;99.90;;;;;;5027072;28;20084;-83
2022/07/30 07:20:29;;;;;;;2.90;1.65;;;21.80;99.90;;;;;;5027421;28;20136;-83
2022/07/30 07:22:56;;;;;;;6.40;2.00;;;21.80;99.90;;;;;;5029099;28;20063;-83
2022/07/30 07:25:23;;;;;;;4.63;1.55;;;21.80;99.90;;;;;;5023268;28;20077;-83
2022/07/30 07:27:50;;;;;;;2.60;1.40;;;21.90;99.90;;;;;;5032007;28;20527;-83
2022/07/30 07:30:36;;;;;;;6.72;1.50;;;21.90;99.90;;;;;;5024418;28;20057;-83
2022/07/30 07:33:03;;;;;;;5.47;1.60;;;22.00;99.90;;;;;;5031984;28;20116;-81
2022/07/30 07:35:30;;;;;;;4.78;1.40;;;22.00;99.90;;;;;;5033036;28;20140;-83
2022/07/30 07:38:06;;;;;;;4.50;1.60;;;22.00;99.90;;;;;;5027772;28;20129;-82
2022/07/30 07:40:33;;;;;;;6.18;1.58;;;22.10;99.90;;;;;;5023118;28;20069;-83
2022/07/30 07:43:00;;;;;;;6.82;1.73;;;22.10;99.90;;;;;;5031608;28;20105;-81
2022/07/30 07:45:26;;;;;;;3.80;1.63;;;22.20;99.90;;;;;;5026288;28;20107;-83
2022/07/30 07:47:54;;;;;;;5.15;1.40;;;22.20;99.90;;;;;;5026285;28;20053;-83
2022/07/30 07:50:20;;;;;;;3.55;1.55;;;22.20;99.90;;;;;;5028697;28;20050;-82
2022/07/30 07:52:47;;;;;;;4.03;1.50;;;22.30;99.90;;;;;;5025066;28;20112;-83
2022/07/30 07:55:15;;;;;;;2.83;1.50;;;22.40;99.90;;;;;;5029227;28;20117;-83
2022/07/30 07:57:44;;;;;;;2.88;1.58;;;22.40;99.90;;;;;;5026076;28;20061;-83
2022/07/30 08:00:13;;;;;;;6.13;1.50;;;22.40;99.90;;;;;;5027377;28;20049;-83
2022/07/30 08:02:40;;;;;;;3.60;1.67;;;22.50;99.90;;;;;;5028983;28;20069;-82
2022/07/30 08:05:09;;;;;;;3.28;1.60;;;22.40;99.90;;;;;;5024447;28;20045;-82
2022/07/30 08:07:36;;;;;;;2.08;1.70;;;22.50;99.90;;;;;;5029653;28;20077;-83
2022/07/30 08:10:03;;;;;;;6.20;1.98;;;22.60;99.90;;;;;;5027550;28;20076;-83
2022/07/30 08:12:30;;;;;;;10.38;1.80;;;22.60;99.90;;;;;;5028258;28;20072;-82
2022/07/30 08:14:56;;;;;;;2.50;1.75;;;22.60;99.90;;;;;;5029559;28;20072;-83
2022/07/30 08:17:24;;;;;;;3.97;2.03;;;22.70;99.90;;;;;;5025843;28;20104;-83
2022/07/30 08:19:51;;;;;;;5.47;1.80;;;22.80;99.90;;;;;;5030233;28;20072;-83
2022/07/30 08:22:17;;;;;;;2.78;1.75;;;22.80;99.90;;;;;;5032090;28;20046;-83
2022/07/30 08:24:44;;;;;;;2.15;1.50;;;22.80;99.90;;;;;;5034981;28;20042;-82
2022/07/30 08:27:11;;;;;;;3.42;1.70;;;22.80;99.90;;;;;;5033056;28;20359;-83
2022/07/30 08:29:38;;;;;;;4.93;1.73;;;22.90;99.90;;;;;;5031530;28;20057;-83
2022/07/30 08:32:05;;;;;;;5.32;1.80;;;23.00;99.90;;;;;;5037256;28;20080;-83
2022/07/30 08:34:31;;;;;;;4.32;1.50;;;23.00;99.90;;;;;;5031721;28;20263;-83
2022/07/30 08:36:58;;;;;;;4.35;1.70;;;23.10;99.90;;;;;;5033252;28;20076;-84
2022/07/30 08:39:25;;;;;;;4.63;1.67;;;23.10;99.90;;;;;;5031599;28;20078;-84
2022/07/30 08:41:52;;;;;;;4.10;1.83;;;23.20;99.90;;;;;;5030542;28;20089;-82
2022/07/30 08:44:20;;;;;;;3.90;1.60;;;23.20;99.90;;;;;;5034887;28;20041;-82
2022/07/30 08:46:50;;;;;;;4.25;1.40;;;23.30;99.90;;;;;;5026273;28;20133;-82
2022/07/30 08:49:17;;;;;;;3.25;1.70;;;23.30;99.90;;;;;;5030569;28;20069;-82
2022/07/30 08:51:44;;;;;;;4.63;1.52;;;23.40;99.90;;;;;;5031193;28;20073;-82
2022/07/30 08:54:11;;;;;;;1.98;1.45;;;23.40;99.90;;;;;;5028817;28;20137;-82
2022/07/30 08:56:38;;;;;;;3.92;1.33;;;23.50;99.90;;;;;;5032609;28;20056;-83
2022/07/30 08:59:05;;;;;;;4.18;1.60;;;23.50;99.90;;;;;;5025135;28;20049;-83
2022/07/30 09:01:32;;;;;;;3.85;1.30;;;23.60;99.90;;;;;;5030766;28;20069;-82
2022/07/30 09:03:58;;;;;;;5.45;1.45;;;23.60;99.90;;;;;;5030326;28;20077;-82
2022/07/30 09:06:25;;;;;;;1.83;1.42;;;23.60;99.90;;;;;;5028933;28;20050;-82
2022/07/30 09:08:53;;;;;;;5.50;2.05;;;23.80;99.90;;;;;;5030709;28;20046;-83
2022/07/30 09:11:20;;;;;;;4.45;1.13;;;23.90;99.90;;;;;;5028879;28;20046;-81
2022/07/30 09:13:49;;;;;;;3.30;1.02;;;23.90;99.90;;;;;;5031606;28;20077;-82
2022/07/30 09:16:21;;;;;;;7.30;2.45;;;23.90;99.90;;;;;;5028943;28;20077;-81
2022/07/30 09:18:49;;;;;;;2.92;1.13;;;23.90;99.90;;;;;;5031920;28;20332;-82
2022/07/30 09:21:33;;;;;;;4.10;1.10;;;24.00;99.90;;;;;;5036295;28;20076;-82
2022/07/30 09:24:01;;;;;;;3.40;1.20;;;24.10;99.90;;;;;;5040111;28;20050;-84
2022/07/30 09:26:29;;;;;;;1.92;1.08;;;24.10;99.90;;;;;;5031829;28;20073;-82
2022/07/30 09:29:18;;;;;;;4.00;1.20;;;24.10;99.90;;;;;;5034716;28;20566;-82
2022/07/30 09:32:00;;;;;;;2.97;0.87;;;24.10;99.90;;;;;;5025607;28;20077;-82
2022/07/30 09:34:31;;;;;;;2.92;0.95;;;24.20;99.90;;;;;;5028189;28;20050;-82
2022/07/30 09:37:17;;;;;;;3.60;0.93;;;24.20;99.90;;;;;;5029373;28;20081;-83
2022/07/30 09:39:43;;;;;;;3.00;1.17;;;24.20;99.90;;;;;;5030531;28;20054;-82
2022/07/30 09:42:27;;;;;;;2.88;1.27;;;24.30;99.90;;;;;;5032071;28;20104;-83
2022/07/30 09:45:05;;;;;;;5.75;1.50;;;24.30;99.90;;;;;;5034467;28;20506;-82
2022/07/30 09:47:34;;;;;;;3.42;1.30;;;24.30;99.90;;;;;;5031164;28;20137;-82
2022/07/30 09:50:03;;;;;;;3.05;1.20;;;24.30;99.90;;;;;;5030562;28;20053;-83
2022/07/30 09:52:33;;;;;;;5.88;1.48;;;24.40;99.90;;;;;;5026975;28;20050;-82
2022/07/30 09:55:00;;;;;;;2.85;1.13;;;24.50;99.90;;;;;;5034453;28;20141;-83
2022/07/30 09:57:29;;;;;;;4.95;1.40;;;24.50;99.90;;;;;;5032508;28;20073;-83
2022/07/30 10:00:14;;;;;;;4.15;1.20;;;24.60;99.90;;;;;;5031267;28;20046;-83
2022/07/30 10:02:41;;;;;;;2.55;1.23;;;24.60;99.90;;;;;;5044819;28;20058;-83
2022/07/30 10:05:14;;;;;;;2.50;1.23;;;24.70;99.90;;;;;;5031209;28;20049;-83
2022/07/30 10:07:47;;;;;;;2.35;1.08;;;24.70;99.90;;;;;;5027017;28;20508;-83
2022/07/30 10:10:18;;;;;;;3.25;1.23;;;24.80;99.90;;;;;;5032761;28;20053;-84
2022/07/30 10:12:46;;;;;;;2.10;1.30;;;24.80;99.90;;;;;;5034261;28;20128;-83
2022/07/30 10:15:17;;;;;;;2.33;1.30;;;24.80;99.90;;;;;;5032431;28;20050;-83
2022/07/30 10:17:45;;;;;;;5.22;1.30;;;24.80;99.90;;;;;;5039195;28;20053;-82
2022/07/30 10:20:14;;;;;;;3.47;1.13;;;24.80;99.90;;;;;;5044644;28;20057;-81
2022/07/30 10:22:43;;;;;;;2.45;1.30;;;24.90;99.90;;;;;;5042003;28;20118;-83
2022/07/30 10:25:17;;;;;;;3.50;1.38;;;25.00;99.90;;;;;;5029074;28;20092;-83
2022/07/30 10:27:47;;;;;;;4.40;1.23;;;25.30;99.90;;;;;;5031738;28;20095;-83
2022/07/30 10:30:15;;;;;;;6.95;1.45;;;25.30;99.90;;;;;;5034174;28;20052;-82
2022/07/30 10:32:43;;;;;;;5.28;1.10;;;25.30;99.90;;;;;;5032560;28;20137;-82
2022/07/30 10:35:12;;;;;;;5.20;1.20;;;25.40;99.90;;;;;;5033483;28;20073;-82
2022/07/30 10:37:59;;;;;;;4.20;1.27;;;25.50;99.90;;;;;;5028878;28;20057;-82
2022/07/30 10:40:28;;;;;;;1.33;0.90;;;25.40;99.90;;;;;;5032902;28;20049;-82
2022/07/30 10:42:59;;;;;;;;;;;25.50;99.90;;;;;;5033045;28;20046;-82
2022/07/30 10:45:38;;;;;;;2.15;1.02;;;25.50;99.90;;;;;;5030158;28;19921;-82
2022/07/30 10:48:12;;;;;;;1.80;1.05;;;25.60;99.90;;;;;;5030696;28;20049;-82
2022/07/30 10:50:56;;;;;;;1.92;1.02;;;26.00;99.90;;;;;;5029154;28;20066;-82
2022/07/30 10:53:36;;;;;;;2.75;1.13;;;26.10;99.90;;;;;;5031005;28;20088;-83
2022/07/30 10:56:20;;;;;;;2.13;1.30;;;26.20;99.90;;;;;;5028977;28;20453;-83
2022/07/30 10:59:02;;;;;;;5.10;1.30;;;26.30;99.90;;;;;;5024266;28;20054;-83
2022/07/30 11:01:47;;;;;;;2.78;1.05;;;26.60;99.90;;;;;;5031180;28;20428;-83
2022/07/30 11:04:29;;;;;;;1.90;0.90;;;26.80;99.90;;;;;;5026814;28;20132;-83
2022/07/30 11:07:28;;;;;;;1.83;0.90;;;26.90;99.90;;;;;;5032963;28;20056;-83
2022/07/30 11:10:00;;;;;;;4.63;1.27;;;26.90;99.90;;;;;;5026725;28;20053;-83
2022/07/30 11:12:55;;;;;;;3.93;1.30;;;26.90;99.90;;;;;;5032708;28;20050;-83
2022/07/30 11:15:22;;;;;;;2.63;1.05;;;27.00;99.90;;;;;;5026579;28;20093;-83
2022/07/30 11:18:07;;;;;;;5.57;1.40;;;27.00;99.90;;;;;;5032180;28;20092;-83
2022/07/30 11:20:39;;;;;;;4.17;1.40;;;27.10;99.90;;;;;;5026587;28;20049;-83
2022/07/30 11:23:19;;;;;;;5.20;3.10;;;27.10;99.90;;;;;;5032200;28;20046;-83
2022/07/30 11:25:47;;;;;;;3.58;1.73;;;27.10;99.90;;;;;;5026926;28;20053;-83
2022/07/30 11:28:37;;;;;;;3.03;1.20;;;27.10;99.90;;;;;;5031662;28;20056;-83
2022/07/30 11:31:28;;;;;;;2.88;1.00;;;27.20;99.90;;;;;;5028096;28;20511;-83
2022/07/30 11:34:17;;;;;;;2.70;1.23;;;27.30;99.90;;;;;;5024489;28;20050;-83
2022/07/30 11:37:03;;;;;;;;;;;27.30;99.90;;;;;;5033579;28;20050;-82
2022/07/30 11:39:57;;;;;;;4.80;1.30;;;27.40;99.90;;;;;;5030205;28;20409;-82
2022/07/30 11:42:27;;;;;;;1.52;1.00;;;27.60;99.90;;;;;;5027367;28;20126;-82
2022/07/30 11:45:15;;;;;;;2.03;0.90;;;27.70;99.90;;;;;;5030648;28;20075;-83
2022/07/30 11:47:49;;;;;;;3.15;1.40;;;27.80;99.90;;;;;;5029159;28;20049;-82
2022/07/30 11:50:22;;;;;;;3.33;1.13;;;27.90;99.90;;;;;;5029175;28;20053;-83
2022/07/30 11:52:54;;;;;;;3.45;1.15;;;27.90;99.90;;;;;;5028230;28;20132;-83
2022/07/30 11:55:27;;;;;;;4.85;1.60;;;27.90;99.90;;;;;;5029940;28;20089;-83
2022/07/30 11:57:55;;;;;;;1.50;1.10;;;27.90;99.90;;;;;;5032898;28;20055;-83
2022/07/30 12:00:22;;;;;;;2.47;1.30;;;28.00;99.90;;;;;;5030672;28;20061;-83
2022/07/30 12:02:49;;;;;;;2.15;1.08;;;27.90;99.90;;;;;;5031346;28;20072;-83
2022/07/30 12:05:26;;;;;;;2.28;1.02;;;27.80;99.90;;;;;;5032190;28;20057;-83
2022/07/30 12:07:58;;;;;;;3.47;1.00;;;27.70;99.90;;;;;;5026350;28;20137;-80
2022/07/30 12:10:25;;;;;;;5.15;1.30;;;27.60;99.90;;;;;;5030284;28;20045;-83
2022/07/30 12:13:13;;;;;;;4.68;1.00;;;27.60;99.90;;;;;;5032241;28;20056;-83
2022/07/30 12:15:43;;;;;;;2.35;1.08;;;27.60;99.90;;;;;;5030003;28;20054;-83
2022/07/30 12:18:12;;;;;;;5.50;1.65;;;27.60;99.90;;;;;;5024351;28;20085;-82
2022/07/30 12:20:55;;;;;;;5.15;1.20;;;27.60;99.90;;;;;;5031001;28;20049;-83
2022/07/30 12:23:24;;;;;;;5.00;1.13;;;27.60;99.90;;;;;;5027385;28;20042;-83
2022/07/30 12:25:51;;;;;;;4.03;1.13;;;27.50;99.90;;;;;;5021031;28;20082;-83
2022/07/30 12:28:24;;;;;;;3.83;1.20;;;27.40;99.90;;;;;;5029611;28;20056;-83
2022/07/30 12:30:52;;;;;;;3.97;1.27;;;27.30;99.90;;;;;;5030580;28;20529;-83
2022/07/30 12:33:19;;;;;;;3.17;1.30;;;27.20;99.90;;;;;;5031182;28;20049;-83
2022/07/30 12:35:48;;;;;;;4.43;1.10;;;27.00;99.90;;;;;;5007723;28;20089;-83
2022/07/30 12:38:17;;;;;;;3.00;1.20;;;27.00;99.90;;;;;;5029676;28;20073;-82
2022/07/30 12:41:00;;;;;;;2.20;1.55;;;27.00;99.90;;;;;;5029859;28;20316;-83
2022/07/30 12:43:55;;;;;;;2.10;1.10;;;27.10;99.90;;;;;;5026118;28;20045;-82
2022/07/30 12:46:26;;;;;;;4.15;1.17;;;27.30;99.90;;;;;;5024653;28;20476;-83
2022/07/30 12:49:03;;;;;;;4.88;1.38;;;27.50;99.90;;;;;;5027417;28;20088;-82
2022/07/30 12:51:52;;;;;;;2.78;0.98;;;27.60;99.90;;;;;;5035597;28;20099;-82
2022/07/30 12:54:27;;;;;;;4.45;1.00;;;27.60;99.90;;;;;;5036924;28;20046;-83
2022/07/30 12:57:03;;;;;;;3.70;1.05;;;27.70;99.90;;;;;;5035823;28;20046;-83
2022/07/30 12:59:32;;;;;;;3.53;1.17;;;27.70;99.90;;;;;;5032529;28;20049;-83
2022/07/30 13:01:59;;;;;;;3.80;1.17;;;27.80;99.90;;;;;;5038140;28;20471;-83
2022/07/30 13:04:27;;;;;;;6.82;1.15;;;27.80;99.90;;;;;;5036580;28;20050;-83
2022/07/30 13:07:07;;;;;;;3.38;1.15;;;27.90;99.90;;;;;;5033452;28;20046;-83